sensor_id;sensor_type;location;lat;lon;timestamp;P1;durP1;ratioP1;P2;durP2;ratioP2
18170;SDS011;9210;48.358;10.902;2022-08-19T00:00:43;6.57;;;4.10;;
18170;SDS011;9210;48.358;10.902;2022-08-19T00:03:11;5.30;;;4.20;;
18170;SDS011;9210;48.358;10.902;2022-08-19T00:05:41;5.72;;;4.35;;
18170;SDS011;9210;48.358;10.902;2022-08-19T00:08:10;5.00;;;3.85;;
18170;SDS011;9210;48.358;10.902;2022-08-19T00:10:38;5.57;;;3.30;;
18170;SDS011;9210;48.358;10.902;2022-08-19T00:13:07;4.30;;;3.38;;
18170;SDS011;9210;48.358;10.902;2022-08-19T00:15:35;3.95;;;2.97;;
18170;SDS011;9210;48.358;10.902;2022-08-19T00:18:04;4.05;;;3.47;;
18170;SDS011;9210;48.358;10.902;2022-08-19T00:20:32;4.03;;;3.10;;
18170;SDS011;9210;48.358;10.902;2022-08-19T00:23:02;4.13;;;3.20;;
18170;SDS011;9210;48.358;10.902;2022-08-19T00:25:31;5.28;;;3.80;;
18170;SDS011;9210;48.358;10.902;2022-08-19T00:27:59;4.50;;;3.63;;
18170;SDS011;9210;48.358;10.902;2022-08-19T00:30:28;3.40;;;3.00;;
18170;SDS011;9210;48.358;10.902;2022-08-19T00:32:56;4.25;;;2.78;;
18170;SDS011;9210;48.358;10.902;2022-08-19T00:35:25;3.30;;;2.70;;
18170;SDS011;9210;48.358;10.902;2022-08-19T00:37:54;1.92;;;1.70;;
18170;SDS011;9210;48.358;10.902;2022-08-19T00:40:24;4.63;;;2.65;;
18170;SDS011;9210;48.358;10.902;2022-08-19T00:42:53;8.27;;;2.53;;
18170;SDS011;9210;48.358;10.902;2022-08-19T00:45:23;5.38;;;2.38;;
18170;SDS011;9210;48.358;10.902;2022-08-19T00:47:53;4.15;;;2.25;;
18170;SDS011;9210;48.358;10.902;2022-08-19T00:50:21;3.88;;;2.40;;
18170;SDS011;9210;48.358;10.902;2022-08-19T00:52:50;2.78;;;2.17;;
18170;SDS011;9210;48.358;10.902;2022-08-19T00:55:26;3.50;;;2.55;;
18170;SDS011;9210;48.358;10.902;2022-08-19T00:57:57;3.90;;;2.33;;
18170;SDS011;9210;48.358;10.902;2022-08-19T01:00:27;3.28;;;2.20;;
18170;SDS011;9210;48.358;10.902;2022-08-19T01:02:55;3.85;;;2.08;;
18170;SDS011;9210;48.358;10.902;2022-08-19T01:05:26;4.50;;;2.30;;
18170;SDS011;9210;48.358;10.902;2022-08-19T01:07:56;3.03;;;2.00;;
18170;SDS011;9210;48.358;10.902;2022-08-19T01:10:26;4.05;;;2.70;;
18170;SDS011;9210;48.358;10.902;2022-08-19T01:13:02;3.20;;;2.38;;
18170;SDS011;9210;48.358;10.902;2022-08-19T01:15:31;3.97;;;2.80;;
18170;SDS011;9210;48.358;10.902;2022-08-19T01:18:01;3.60;;;2.63;;
18170;SDS011;9210;48.358;10.902;2022-08-19T01:20:30;4.05;;;2.72;;
18170;SDS011;9210;48.358;10.902;2022-08-19T01:23:02;3.55;;;2.80;;
18170;SDS011;9210;48.358;10.902;2022-08-19T01:25:32;3.58;;;2.35;;
18170;SDS011;9210;48.358;10.902;2022-08-19T01:28:04;4.05;;;2.88;;
18170;SDS011;9210;48.358;10.902;2022-08-19T01:30:36;4.57;;;3.50;;
18170;SDS011;9210;48.358;10.902;2022-08-19T01:33:09;5.47;;;3.75;;
18170;SDS011;9210;48.358;10.902;2022-08-19T01:35:38;6.05;;;4.63;;
18170;SDS011;9210;48.358;10.902;2022-08-19T01:38:09;7.15;;;5.10;;
18170;SDS011;9210;48.358;10.902;2022-08-19T01:40:38;7.80;;;5.20;;
18170;SDS011;9210;48.358;10.902;2022-08-19T01:43:08;7.53;;;6.20;;
18170;SDS011;9210;48.358;10.902;2022-08-19T01:45:37;8.75;;;6.63;;
18170;SDS011;9210;48.358;10.902;2022-08-19T01:48:08;9.85;;;6.45;;
18170;SDS011;9210;48.358;10.902;2022-08-19T01:50:36;8.68;;;6.35;;
18170;SDS011;9210;48.358;10.902;2022-08-19T01:53:06;7.50;;;5.90;;
18170;SDS011;9210;48.358;10.902;2022-08-19T01:55:38;11.70;;;8.73;;
18170;SDS011;9210;48.358;10.902;2022-08-19T01:58:08;12.00;;;8.10;;
18170;SDS011;9210;48.358;10.902;2022-08-19T02:00:38;10.80;;;7.55;;
18170;SDS011;9210;48.358;10.902;2022-08-19T02:03:06;9.27;;;7.45;;
18170;SDS011;9210;48.358;10.902;2022-08-19T02:05:36;9.93;;;7.57;;
18170;SDS011;9210;48.358;10.902;2022-08-19T02:08:05;9.13;;;7.20;;
18170;SDS011;9210;48.358;10.902;2022-08-19T02:10:33;16.45;;;9.77;;
18170;SDS011;9210;48.358;10.902;2022-08-19T02:13:03;10.82;;;8.82;;
18170;SDS011;9210;48.358;10.902;2022-08-19T02:15:31;9.50;;;7.55;;
18170;SDS011;9210;48.358;10.902;2022-08-19T02:18:00;14.70;;;10.43;;
18170;SDS011;9210;48.358;10.902;2022-08-19T02:20:28;12.63;;;9.45;;
18170;SDS011;9210;48.358;10.902;2022-08-19T02:22:56;13.13;;;9.15;;
18170;SDS011;9210;48.358;10.902;2022-08-19T02:25:25;13.93;;;10.43;;
18170;SDS011;9210;48.358;10.902;2022-08-19T02:27:53;16.75;;;12.35;;
18170;SDS011;9210;48.358;10.902;2022-08-19T02:30:23;12.75;;;9.68;;
18170;SDS011;9210;48.358;10.902;2022-08-19T02:32:51;18.33;;;12.32;;
18170;SDS011;9210;48.358;10.902;2022-08-19T02:35:20;19.40;;;13.68;;
18170;SDS011;9210;48.358;10.902;2022-08-19T02:37:49;19.38;;;12.73;;
18170;SDS011;9210;48.358;10.902;2022-08-19T02:40:35;17.70;;;12.80;;
18170;SDS011;9210;48.358;10.902;2022-08-19T02:43:04;19.40;;;13.75;;
18170;SDS011;9210;48.358;10.902;2022-08-19T02:45:35;15.50;;;11.40;;
18170;SDS011;9210;48.358;10.902;2022-08-19T02:48:06;17.48;;;12.25;;
18170;SDS011;9210;48.358;10.902;2022-08-19T02:50:47;19.33;;;13.80;;
18170;SDS011;9210;48.358;10.902;2022-08-19T02:53:19;16.83;;;12.15;;
18170;SDS011;9210;48.358;10.902;2022-08-19T02:55:48;17.50;;;12.27;;
18170;SDS011;9210;48.358;10.902;2022-08-19T02:58:18;16.92;;;12.07;;
18170;SDS011;9210;48.358;10.902;2022-08-19T03:00:49;22.52;;;15.43;;
18170;SDS011;9210;48.358;10.902;2022-08-19T03:03:18;20.77;;;15.05;;
18170;SDS011;9210;48.358;10.902;2022-08-19T03:05:46;19.73;;;14.57;;
18170;SDS011;9210;48.358;10.902;2022-08-19T03:08:22;26.33;;;18.75;;
18170;SDS011;9210;48.358;10.902;2022-08-19T03:10:52;24.20;;;17.98;;
18170;SDS011;9210;48.358;10.902;2022-08-19T03:13:21;24.70;;;17.55;;
18170;SDS011;9210;48.358;10.902;2022-08-19T03:15:51;22.60;;;16.25;;
18170;SDS011;9210;48.358;10.902;2022-08-19T03:18:19;27.98;;;18.95;;
18170;SDS011;9210;48.358;10.902;2022-08-19T03:20:49;25.67;;;18.38;;
18170;SDS011;9210;48.358;10.902;2022-08-19T03:23:19;27.55;;;19.30;;
18170;SDS011;9210;48.358;10.902;2022-08-19T03:25:48;24.75;;;18.33;;
18170;SDS011;9210;48.358;10.902;2022-08-19T03:28:37;25.13;;;17.75;;
18170;SDS011;9210;48.358;10.902;2022-08-19T03:31:08;29.73;;;19.75;;
18170;SDS011;9210;48.358;10.902;2022-08-19T03:33:57;26.95;;;18.90;;
18170;SDS011;9210;48.358;10.902;2022-08-19T03:36:26;28.90;;;21.05;;
18170;SDS011;9210;48.358;10.902;2022-08-19T03:38:55;32.08;;;22.13;;
18170;SDS011;9210;48.358;10.902;2022-08-19T03:41:26;31.05;;;21.92;;
18170;SDS011;9210;48.358;10.902;2022-08-19T03:44:11;33.33;;;23.73;;
18170;SDS011;9210;48.358;10.902;2022-08-19T03:46:46;36.20;;;24.35;;
18170;SDS011;9210;48.358;10.902;2022-08-19T03:49:15;32.70;;;22.85;;
18170;SDS011;9210;48.358;10.902;2022-08-19T03:51:45;41.22;;;26.95;;
18170;SDS011;9210;48.358;10.902;2022-08-19T03:54:14;32.17;;;23.17;;
18170;SDS011;9210;48.358;10.902;2022-08-19T03:56:45;34.38;;;24.20;;
18170;SDS011;9210;48.358;10.902;2022-08-19T03:59:17;38.45;;;26.30;;
18170;SDS011;9210;48.358;10.902;2022-08-19T04:01:47;39.20;;;26.23;;
18170;SDS011;9210;48.358;10.902;2022-08-19T04:04:16;39.28;;;26.05;;
18170;SDS011;9210;48.358;10.902;2022-08-19T04:06:45;45.63;;;29.38;;
18170;SDS011;9210;48.358;10.902;2022-08-19T04:09:14;44.75;;;29.25;;
18170;SDS011;9210;48.358;10.902;2022-08-19T04:11:43;37.10;;;24.95;;
18170;SDS011;9210;48.358;10.902;2022-08-19T04:14:15;48.22;;;31.20;;
18170;SDS011;9210;48.358;10.902;2022-08-19T04:16:44;44.88;;;30.65;;
18170;SDS011;9210;48.358;10.902;2022-08-19T04:19:14;40.00;;;27.15;;
18170;SDS011;9210;48.358;10.902;2022-08-19T04:21:43;42.70;;;28.38;;
18170;SDS011;9210;48.358;10.902;2022-08-19T04:24:12;41.35;;;27.75;;
18170;SDS011;9210;48.358;10.902;2022-08-19T04:26:41;51.00;;;32.30;;
18170;SDS011;9210;48.358;10.902;2022-08-19T04:29:10;55.17;;;34.75;;
18170;SDS011;9210;48.358;10.902;2022-08-19T04:31:39;52.25;;;32.42;;
18170;SDS011;9210;48.358;10.902;2022-08-19T04:34:08;45.22;;;29.50;;
18170;SDS011;9210;48.358;10.902;2022-08-19T04:36:39;39.22;;;26.10;;
18170;SDS011;9210;48.358;10.902;2022-08-19T04:39:09;50.53;;;31.88;;
18170;SDS011;9210;48.358;10.902;2022-08-19T04:41:38;42.35;;;28.42;;
18170;SDS011;9210;48.358;10.902;2022-08-19T04:44:24;46.13;;;29.05;;
18170;SDS011;9210;48.358;10.902;2022-08-19T04:46:52;43.47;;;28.63;;
18170;SDS011;9210;48.358;10.902;2022-08-19T04:49:22;39.83;;;26.90;;
18170;SDS011;9210;48.358;10.902;2022-08-19T04:51:53;41.72;;;27.35;;
18170;SDS011;9210;48.358;10.902;2022-08-19T04:54:22;43.03;;;27.80;;
18170;SDS011;9210;48.358;10.902;2022-08-19T04:57:04;43.03;;;27.98;;
18170;SDS011;9210;48.358;10.902;2022-08-19T04:59:36;47.17;;;27.70;;
18170;SDS011;9210;48.358;10.902;2022-08-19T05:02:06;45.22;;;27.92;;
18170;SDS011;9210;48.358;10.902;2022-08-19T05:04:35;39.67;;;25.98;;
18170;SDS011;9210;48.358;10.902;2022-08-19T05:07:07;40.67;;;26.55;;
18170;SDS011;9210;48.358;10.902;2022-08-19T05:09:36;43.40;;;28.40;;
18170;SDS011;9210;48.358;10.902;2022-08-19T05:12:24;38.30;;;25.50;;
18170;SDS011;9210;48.358;10.902;2022-08-19T05:14:55;34.03;;;23.58;;
18170;SDS011;9210;48.358;10.902;2022-08-19T05:17:24;38.63;;;24.67;;
18170;SDS011;9210;48.358;10.902;2022-08-19T05:19:57;32.30;;;22.52;;
18170;SDS011;9210;48.358;10.902;2022-08-19T05:22:45;36.38;;;23.67;;
18170;SDS011;9210;48.358;10.902;2022-08-19T05:25:16;42.17;;;26.60;;
18170;SDS011;9210;48.358;10.902;2022-08-19T05:27:46;42.30;;;27.58;;
18170;SDS011;9210;48.358;10.902;2022-08-19T05:30:15;37.70;;;24.27;;
18170;SDS011;9210;48.358;10.902;2022-08-19T05:32:45;35.97;;;24.02;;
18170;SDS011;9210;48.358;10.902;2022-08-19T05:35:14;35.50;;;23.67;;
18170;SDS011;9210;48.358;10.902;2022-08-19T05:37:42;35.53;;;23.67;;
18170;SDS011;9210;48.358;10.902;2022-08-19T05:40:12;34.63;;;22.55;;
18170;SDS011;9210;48.358;10.902;2022-08-19T05:42:40;35.15;;;23.15;;
18170;SDS011;9210;48.358;10.902;2022-08-19T05:45:12;36.03;;;23.17;;
18170;SDS011;9210;48.358;10.902;2022-08-19T05:47:40;40.78;;;25.38;;
18170;SDS011;9210;48.358;10.902;2022-08-19T05:50:08;44.88;;;27.50;;
18170;SDS011;9210;48.358;10.902;2022-08-19T05:52:37;32.35;;;21.52;;
18170;SDS011;9210;48.358;10.902;2022-08-19T05:55:12;33.92;;;22.10;;
18170;SDS011;9210;48.358;10.902;2022-08-19T05:57:41;37.50;;;23.70;;
18170;SDS011;9210;48.358;10.902;2022-08-19T06:00:10;35.72;;;22.95;;
18170;SDS011;9210;48.358;10.902;2022-08-19T06:02:38;39.45;;;24.88;;
18170;SDS011;9210;48.358;10.902;2022-08-19T06:05:07;35.72;;;23.40;;
18170;SDS011;9210;48.358;10.902;2022-08-19T06:07:36;37.97;;;24.20;;
18170;SDS011;9210;48.358;10.902;2022-08-19T06:10:06;44.58;;;28.20;;
18170;SDS011;9210;48.358;10.902;2022-08-19T06:12:36;42.92;;;26.33;;
18170;SDS011;9210;48.358;10.902;2022-08-19T06:15:06;35.88;;;23.65;;
18170;SDS011;9210;48.358;10.902;2022-08-19T06:17:34;47.20;;;27.95;;
18170;SDS011;9210;48.358;10.902;2022-08-19T06:20:03;47.85;;;29.02;;
18170;SDS011;9210;48.358;10.902;2022-08-19T06:22:36;47.47;;;29.63;;
18170;SDS011;9210;48.358;10.902;2022-08-19T06:25:05;44.50;;;28.85;;
18170;SDS011;9210;48.358;10.902;2022-08-19T06:27:37;54.85;;;30.77;;
18170;SDS011;9210;48.358;10.902;2022-08-19T06:30:25;50.67;;;29.45;;
18170;SDS011;9210;48.358;10.902;2022-08-19T06:32:54;53.50;;;31.40;;
18170;SDS011;9210;48.358;10.902;2022-08-19T06:35:22;49.58;;;29.55;;
18170;SDS011;9210;48.358;10.902;2022-08-19T06:37:51;55.65;;;31.48;;
18170;SDS011;9210;48.358;10.902;2022-08-19T06:40:20;46.53;;;28.50;;
18170;SDS011;9210;48.358;10.902;2022-08-19T06:42:50;55.63;;;32.53;;
18170;SDS011;9210;48.358;10.902;2022-08-19T06:45:20;47.75;;;29.83;;
18170;SDS011;9210;48.358;10.902;2022-08-19T06:47:50;54.60;;;31.45;;
18170;SDS011;9210;48.358;10.902;2022-08-19T06:50:22;60.53;;;33.97;;
18170;SDS011;9210;48.358;10.902;2022-08-19T06:52:51;69.40;;;37.50;;
18170;SDS011;9210;48.358;10.902;2022-08-19T06:55:20;65.20;;;36.97;;
18170;SDS011;9210;48.358;10.902;2022-08-19T06:57:50;62.78;;;35.42;;
18170;SDS011;9210;48.358;10.902;2022-08-19T07:00:20;53.00;;;31.98;;
18170;SDS011;9210;48.358;10.902;2022-08-19T07:02:48;53.40;;;32.83;;
18170;SDS011;9210;48.358;10.902;2022-08-19T07:05:24;64.63;;;35.63;;
18170;SDS011;9210;48.358;10.902;2022-08-19T07:07:53;59.90;;;34.03;;
18170;SDS011;9210;48.358;10.902;2022-08-19T07:10:28;51.92;;;32.45;;
18170;SDS011;9210;48.358;10.902;2022-08-19T07:12:59;50.50;;;30.55;;
18170;SDS011;9210;48.358;10.902;2022-08-19T07:15:28;48.13;;;30.27;;
18170;SDS011;9210;48.358;10.902;2022-08-19T07:17:57;50.55;;;29.35;;
18170;SDS011;9210;48.358;10.902;2022-08-19T07:20:25;55.42;;;32.22;;
18170;SDS011;9210;48.358;10.902;2022-08-19T07:22:55;51.92;;;31.38;;
18170;SDS011;9210;48.358;10.902;2022-08-19T07:25:24;59.60;;;34.38;;
18170;SDS011;9210;48.358;10.902;2022-08-19T07:27:59;58.03;;;33.10;;
18170;SDS011;9210;48.358;10.902;2022-08-19T07:30:29;62.17;;;35.42;;
18170;SDS011;9210;48.358;10.902;2022-08-19T07:33:00;60.28;;;34.78;;
18170;SDS011;9210;48.358;10.902;2022-08-19T07:35:29;64.18;;;36.58;;
18170;SDS011;9210;48.358;10.902;2022-08-19T07:37:58;64.90;;;36.88;;
18170;SDS011;9210;48.358;10.902;2022-08-19T07:40:29;47.25;;;29.67;;
18170;SDS011;9210;48.358;10.902;2022-08-19T07:42:57;52.28;;;30.95;;
18170;SDS011;9210;48.358;10.902;2022-08-19T07:45:27;56.80;;;33.40;;
18170;SDS011;9210;48.358;10.902;2022-08-19T07:47:56;65.35;;;35.45;;
18170;SDS011;9210;48.358;10.902;2022-08-19T07:50:26;68.40;;;36.40;;
18170;SDS011;9210;48.358;10.902;2022-08-19T07:52:54;71.55;;;39.33;;
18170;SDS011;9210;48.358;10.902;2022-08-19T07:55:24;60.92;;;34.90;;
18170;SDS011;9210;48.358;10.902;2022-08-19T07:58:09;63.45;;;35.20;;
18170;SDS011;9210;48.358;10.902;2022-08-19T08:00:39;75.90;;;40.38;;
18170;SDS011;9210;48.358;10.902;2022-08-19T08:03:07;68.25;;;37.55;;
18170;SDS011;9210;48.358;10.902;2022-08-19T08:05:36;66.70;;;37.25;;
18170;SDS011;9210;48.358;10.902;2022-08-19T08:08:22;63.42;;;34.20;;
18170;SDS011;9210;48.358;10.902;2022-08-19T08:11:14;63.78;;;35.80;;
18170;SDS011;9210;48.358;10.902;2022-08-19T08:13:45;63.38;;;36.35;;
18170;SDS011;9210;48.358;10.902;2022-08-19T08:16:28;77.18;;;40.47;;
18170;SDS011;9210;48.358;10.902;2022-08-19T08:18:57;67.53;;;37.50;;
18170;SDS011;9210;48.358;10.902;2022-08-19T08:21:26;79.00;;;40.40;;
18170;SDS011;9210;48.358;10.902;2022-08-19T08:23:55;82.22;;;42.22;;
18170;SDS011;9210;48.358;10.902;2022-08-19T08:26:28;82.45;;;41.85;;
18170;SDS011;9210;48.358;10.902;2022-08-19T08:28:59;84.30;;;40.83;;
18170;SDS011;9210;48.358;10.902;2022-08-19T08:31:40;65.55;;;36.13;;
18170;SDS011;9210;48.358;10.902;2022-08-19T08:34:09;87.10;;;42.65;;
18170;SDS011;9210;48.358;10.902;2022-08-19T08:36:37;78.35;;;39.40;;
18170;SDS011;9210;48.358;10.902;2022-08-19T08:39:08;95.07;;;44.30;;
18170;SDS011;9210;48.358;10.902;2022-08-19T08:41:41;82.88;;;43.35;;
18170;SDS011;9210;48.358;10.902;2022-08-19T08:44:13;77.97;;;39.95;;
18170;SDS011;9210;48.358;10.902;2022-08-19T08:46:47;82.68;;;43.20;;
18170;SDS011;9210;48.358;10.902;2022-08-19T08:49:24;91.80;;;44.05;;
18170;SDS011;9210;48.358;10.902;2022-08-19T08:51:59;87.85;;;42.35;;
18170;SDS011;9210;48.358;10.902;2022-08-19T08:54:30;95.72;;;45.03;;
18170;SDS011;9210;48.358;10.902;2022-08-19T08:57:02;72.80;;;40.20;;
18170;SDS011;9210;48.358;10.902;2022-08-19T08:59:31;84.53;;;43.90;;
18170;SDS011;9210;48.358;10.902;2022-08-19T09:02:03;89.97;;;44.72;;
18170;SDS011;9210;48.358;10.902;2022-08-19T09:04:31;69.10;;;38.05;;
18170;SDS011;9210;48.358;10.902;2022-08-19T09:07:02;77.55;;;40.38;;
18170;SDS011;9210;48.358;10.902;2022-08-19T09:09:55;101.93;;;47.17;;
18170;SDS011;9210;48.358;10.902;2022-08-19T09:12:27;96.18;;;46.70;;
18170;SDS011;9210;48.358;10.902;2022-08-19T09:15:02;92.60;;;44.85;;
18170;SDS011;9210;48.358;10.902;2022-08-19T09:17:32;91.00;;;44.47;;
18170;SDS011;9210;48.358;10.902;2022-08-19T09:20:03;107.90;;;48.65;;
18170;SDS011;9210;48.358;10.902;2022-08-19T09:22:34;98.22;;;47.83;;
18170;SDS011;9210;48.358;10.902;2022-08-19T09:25:04;102.13;;;47.00;;
18170;SDS011;9210;48.358;10.902;2022-08-19T09:27:33;97.75;;;46.78;;
18170;SDS011;9210;48.358;10.902;2022-08-19T09:30:10;99.60;;;46.70;;
18170;SDS011;9210;48.358;10.902;2022-08-19T09:32:40;102.75;;;47.53;;
18170;SDS011;9210;48.358;10.902;2022-08-19T09:35:09;85.35;;;44.17;;
18170;SDS011;9210;48.358;10.902;2022-08-19T09:37:38;102.05;;;49.22;;
18170;SDS011;9210;48.358;10.902;2022-08-19T09:40:08;82.00;;;43.65;;
18170;SDS011;9210;48.358;10.902;2022-08-19T09:42:37;104.25;;;48.28;;
18170;SDS011;9210;48.358;10.902;2022-08-19T09:45:18;99.72;;;46.78;;
18170;SDS011;9210;48.358;10.902;2022-08-19T09:47:50;98.70;;;47.38;;
18170;SDS011;9210;48.358;10.902;2022-08-19T09:50:20;102.57;;;48.13;;
18170;SDS011;9210;48.358;10.902;2022-08-19T09:52:49;87.10;;;44.15;;
18170;SDS011;9210;48.358;10.902;2022-08-19T09:55:23;99.90;;;46.75;;
18170;SDS011;9210;48.358;10.902;2022-08-19T09:57:59;70.45;;;39.38;;
18170;SDS011;9210;48.358;10.902;2022-08-19T10:00:27;82.80;;;41.47;;
18170;SDS011;9210;48.358;10.902;2022-08-19T10:02:57;68.60;;;37.13;;
18170;SDS011;9210;48.358;10.902;2022-08-19T10:05:27;69.95;;;38.33;;
18170;SDS011;9210;48.358;10.902;2022-08-19T10:08:14;73.05;;;39.45;;
18170;SDS011;9210;48.358;10.902;2022-08-19T10:10:43;74.70;;;40.72;;
18170;SDS011;9210;48.358;10.902;2022-08-19T10:13:13;83.00;;;42.70;;
18170;SDS011;9210;48.358;10.902;2022-08-19T10:15:41;93.05;;;45.13;;
18170;SDS011;9210;48.358;10.902;2022-08-19T10:18:16;80.70;;;41.83;;
18170;SDS011;9210;48.358;10.902;2022-08-19T10:20:45;70.20;;;38.28;;
18170;SDS011;9210;48.358;10.902;2022-08-19T10:23:18;81.28;;;41.70;;
18170;SDS011;9210;48.358;10.902;2022-08-19T10:25:46;92.03;;;45.17;;
18170;SDS011;9210;48.358;10.902;2022-08-19T10:28:16;78.88;;;40.85;;
18170;SDS011;9210;48.358;10.902;2022-08-19T10:30:45;74.63;;;40.35;;
18170;SDS011;9210;48.358;10.902;2022-08-19T10:33:15;81.28;;;42.08;;
18170;SDS011;9210;48.358;10.902;2022-08-19T10:36:04;71.25;;;38.10;;
18170;SDS011;9210;48.358;10.902;2022-08-19T10:38:33;87.88;;;43.78;;
18170;SDS011;9210;48.358;10.902;2022-08-19T10:41:08;85.53;;;41.40;;
18170;SDS011;9210;48.358;10.902;2022-08-19T10:43:37;87.10;;;43.30;;
18170;SDS011;9210;48.358;10.902;2022-08-19T10:46:06;129.07;;;50.65;;
18170;SDS011;9210;48.358;10.902;2022-08-19T10:48:43;98.03;;;43.95;;
18170;SDS011;9210;48.358;10.902;2022-08-19T10:51:12;122.47;;;45.83;;
18170;SDS011;9210;48.358;10.902;2022-08-19T10:53:59;81.65;;;39.10;;
18170;SDS011;9210;48.358;10.902;2022-08-19T10:56:32;101.80;;;42.17;;
18170;SDS011;9210;48.358;10.902;2022-08-19T10:59:18;64.50;;;31.02;;
18170;SDS011;9210;48.358;10.902;2022-08-19T11:01:52;69.60;;;34.65;;
18170;SDS011;9210;48.358;10.902;2022-08-19T11:04:24;83.43;;;34.92;;
18170;SDS011;9210;48.358;10.902;2022-08-19T11:06:55;62.35;;;29.85;;
18170;SDS011;9210;48.358;10.902;2022-08-19T11:09:24;39.15;;;22.20;;
18170;SDS011;9210;48.358;10.902;2022-08-19T11:12:00;45.60;;;24.88;;
18170;SDS011;9210;48.358;10.902;2022-08-19T11:14:30;36.35;;;21.05;;
18170;SDS011;9210;48.358;10.902;2022-08-19T11:17:00;43.40;;;23.52;;
18170;SDS011;9210;48.358;10.902;2022-08-19T11:19:30;36.92;;;20.30;;
18170;SDS011;9210;48.358;10.902;2022-08-19T11:21:58;40.00;;;20.65;;
18170;SDS011;9210;48.358;10.902;2022-08-19T11:24:31;35.53;;;19.90;;
18170;SDS011;9210;48.358;10.902;2022-08-19T11:27:00;54.03;;;25.58;;
18170;SDS011;9210;48.358;10.902;2022-08-19T11:29:32;40.58;;;22.63;;
18170;SDS011;9210;48.358;10.902;2022-08-19T11:32:03;45.70;;;22.77;;
18170;SDS011;9210;48.358;10.902;2022-08-19T11:34:33;65.70;;;29.52;;
18170;SDS011;9210;48.358;10.902;2022-08-19T11:37:02;31.65;;;18.65;;
18170;SDS011;9210;48.358;10.902;2022-08-19T11:39:32;35.70;;;20.65;;
18170;SDS011;9210;48.358;10.902;2022-08-19T11:42:02;31.13;;;17.83;;
18170;SDS011;9210;48.358;10.902;2022-08-19T11:44:51;27.30;;;15.40;;
18170;SDS011;9210;48.358;10.902;2022-08-19T11:47:19;29.00;;;16.00;;
18170;SDS011;9210;48.358;10.902;2022-08-19T11:49:49;25.60;;;14.10;;
18170;SDS011;9210;48.358;10.902;2022-08-19T11:52:19;21.27;;;12.77;;
18170;SDS011;9210;48.358;10.902;2022-08-19T11:54:48;17.27;;;10.10;;
18170;SDS011;9210;48.358;10.902;2022-08-19T11:57:16;13.35;;;8.20;;
18170;SDS011;9210;48.358;10.902;2022-08-19T11:59:50;14.48;;;8.90;;
18170;SDS011;9210;48.358;10.902;2022-08-19T12:02:19;17.77;;;10.82;;
18170;SDS011;9210;48.358;10.902;2022-08-19T12:04:49;20.17;;;12.93;;
18170;SDS011;9210;48.358;10.902;2022-08-19T12:07:17;21.25;;;13.30;;
18170;SDS011;9210;48.358;10.902;2022-08-19T12:09:46;21.50;;;13.50;;
18170;SDS011;9210;48.358;10.902;2022-08-19T12:12:15;23.42;;;14.55;;
18170;SDS011;9210;48.358;10.902;2022-08-19T12:14:44;27.13;;;17.65;;
18170;SDS011;9210;48.358;10.902;2022-08-19T12:17:12;25.75;;;16.00;;
18170;SDS011;9210;48.358;10.902;2022-08-19T12:19:41;29.80;;;17.88;;
18170;SDS011;9210;48.358;10.902;2022-08-19T12:22:12;27.45;;;16.17;;
18170;SDS011;9210;48.358;10.902;2022-08-19T12:24:40;27.83;;;16.77;;
18170;SDS011;9210;48.358;10.902;2022-08-19T12:27:08;26.45;;;15.75;;
18170;SDS011;9210;48.358;10.902;2022-08-19T12:29:38;30.77;;;17.42;;
18170;SDS011;9210;48.358;10.902;2022-08-19T12:32:07;24.15;;;15.40;;
18170;SDS011;9210;48.358;10.902;2022-08-19T12:34:38;20.48;;;12.90;;
18170;SDS011;9210;48.358;10.902;2022-08-19T12:37:06;23.45;;;13.98;;
18170;SDS011;9210;48.358;10.902;2022-08-19T12:39:37;22.35;;;13.73;;
18170;SDS011;9210;48.358;10.902;2022-08-19T12:42:07;19.70;;;12.65;;
18170;SDS011;9210;48.358;10.902;2022-08-19T12:44:36;12.77;;;9.07;;
18170;SDS011;9210;48.358;10.902;2022-08-19T12:47:08;10.57;;;7.60;;
18170;SDS011;9210;48.358;10.902;2022-08-19T12:49:37;13.32;;;9.02;;
18170;SDS011;9210;48.358;10.902;2022-08-19T12:52:21;15.10;;;10.15;;
18170;SDS011;9210;48.358;10.902;2022-08-19T12:54:51;9.48;;;7.00;;
18170;SDS011;9210;48.358;10.902;2022-08-19T12:57:20;9.80;;;7.20;;
18170;SDS011;9210;48.358;10.902;2022-08-19T12:59:58;10.35;;;8.10;;
18170;SDS011;9210;48.358;10.902;2022-08-19T13:02:30;13.63;;;8.50;;
18170;SDS011;9210;48.358;10.902;2022-08-19T13:05:05;9.52;;;7.20;;
18170;SDS011;9210;48.358;10.902;2022-08-19T13:07:34;13.63;;;8.30;;
18170;SDS011;9210;48.358;10.902;2022-08-19T13:10:06;15.50;;;10.70;;
18170;SDS011;9210;48.358;10.902;2022-08-19T13:12:35;12.85;;;9.23;;
18170;SDS011;9210;48.358;10.902;2022-08-19T13:15:03;13.75;;;10.38;;
18170;SDS011;9210;48.358;10.902;2022-08-19T13:17:36;16.63;;;11.02;;
18170;SDS011;9210;48.358;10.902;2022-08-19T13:20:05;11.95;;;8.75;;
18170;SDS011;9210;48.358;10.902;2022-08-19T13:22:35;15.20;;;10.50;;
18170;SDS011;9210;48.358;10.902;2022-08-19T13:25:06;13.38;;;9.25;;
18170;SDS011;9210;48.358;10.902;2022-08-19T13:27:35;14.82;;;10.68;;
18170;SDS011;9210;48.358;10.902;2022-08-19T13:30:04;15.95;;;11.38;;
18170;SDS011;9210;48.358;10.902;2022-08-19T13:32:47;15.57;;;10.70;;
18170;SDS011;9210;48.358;10.902;2022-08-19T13:35:32;12.65;;;9.43;;
18170;SDS011;9210;48.358;10.902;2022-08-19T13:38:01;17.30;;;11.45;;
18170;SDS011;9210;48.358;10.902;2022-08-19T13:40:36;17.10;;;11.02;;
18170;SDS011;9210;48.358;10.902;2022-08-19T13:43:06;18.17;;;12.50;;
18170;SDS011;9210;48.358;10.902;2022-08-19T13:45:48;17.63;;;12.65;;
18170;SDS011;9210;48.358;10.902;2022-08-19T13:48:17;17.40;;;11.27;;
18170;SDS011;9210;48.358;10.902;2022-08-19T13:50:45;24.15;;;14.95;;
18170;SDS011;9210;48.358;10.902;2022-08-19T13:53:14;20.50;;;13.73;;
18170;SDS011;9210;48.358;10.902;2022-08-19T13:55:44;21.40;;;14.43;;
18170;SDS011;9210;48.358;10.902;2022-08-19T13:58:13;20.52;;;14.52;;
18170;SDS011;9210;48.358;10.902;2022-08-19T14:00:42;20.98;;;13.68;;
18170;SDS011;9210;48.358;10.902;2022-08-19T14:03:11;22.92;;;15.68;;
18170;SDS011;9210;48.358;10.902;2022-08-19T14:05:40;24.95;;;16.75;;
18170;SDS011;9210;48.358;10.902;2022-08-19T14:08:08;24.08;;;16.65;;
18170;SDS011;9210;48.358;10.902;2022-08-19T14:10:38;26.75;;;17.60;;
18170;SDS011;9210;48.358;10.902;2022-08-19T14:13:08;32.55;;;21.02;;
18170;SDS011;9210;48.358;10.902;2022-08-19T14:15:36;29.23;;;18.70;;
18170;SDS011;9210;48.358;10.902;2022-08-19T14:18:05;30.40;;;19.58;;
18170;SDS011;9210;48.358;10.902;2022-08-19T14:20:34;25.58;;;17.70;;
18170;SDS011;9210;48.358;10.902;2022-08-19T14:23:02;26.25;;;18.40;;
18170;SDS011;9210;48.358;10.902;2022-08-19T14:25:32;32.22;;;21.08;;
18170;SDS011;9210;48.358;10.902;2022-08-19T14:28:01;29.95;;;20.33;;
18170;SDS011;9210;48.358;10.902;2022-08-19T14:30:33;31.92;;;20.40;;
18170;SDS011;9210;48.358;10.902;2022-08-19T14:33:03;33.25;;;22.02;;
18170;SDS011;9210;48.358;10.902;2022-08-19T14:35:33;21.77;;;16.25;;
18170;SDS011;9210;48.358;10.902;2022-08-19T14:38:01;28.92;;;20.20;;
18170;SDS011;9210;48.358;10.902;2022-08-19T14:40:31;28.40;;;17.83;;
18170;SDS011;9210;48.358;10.902;2022-08-19T14:43:03;27.70;;;19.67;;
18170;SDS011;9210;48.358;10.902;2022-08-19T14:45:34;27.95;;;18.70;;
18170;SDS011;9210;48.358;10.902;2022-08-19T14:48:03;22.52;;;15.90;;